sensor_id;sensor_type;location;lat;lon;timestamp;temperature;humidity
56478;DHT22;42382;53.210;5.772;2024-01-15T00:01:29;2.90;88.80
56478;DHT22;42382;53.210;5.772;2024-01-15T00:03:54;2.90;88.70
56478;DHT22;42382;53.210;5.772;2024-01-15T00:06:20;3.00;88.70
56478;DHT22;42382;53.210;5.772;2024-01-15T00:08:46;3.00;88.60
56478;DHT22;42382;53.210;5.772;2024-01-15T00:11:12;3.00;88.40
56478;DHT22;42382;53.210;5.772;2024-01-15T00:13:37;3.00;88.50
56478;DHT22;42382;53.210;5.772;2024-01-15T00:16:04;3.00;88.50
56478;DHT22;42382;53.210;5.772;2024-01-15T00:18:30;3.00;88.60
56478;DHT22;42382;53.210;5.772;2024-01-15T00:20:55;3.10;88.60
56478;DHT22;42382;53.210;5.772;2024-01-15T00:23:22;3.10;88.70
56478;DHT22;42382;53.210;5.772;2024-01-15T00:25:48;3.10;88.60
56478;DHT22;42382;53.210;5.772;2024-01-15T00:28:13;3.10;88.60
56478;DHT22;42382;53.210;5.772;2024-01-15T00:30:39;3.10;88.70
56478;DHT22;42382;53.210;5.772;2024-01-15T00:33:04;3.20;88.80
56478;DHT22;42382;53.210;5.772;2024-01-15T00:35:30;3.30;88.80
56478;DHT22;42382;53.210;5.772;2024-01-15T00:37:56;3.30;88.90
56478;DHT22;42382;53.210;5.772;2024-01-15T00:40:21;3.30;89.00
56478;DHT22;42382;53.210;5.772;2024-01-15T00:42:47;3.30;89.00
56478;DHT22;42382;53.210;5.772;2024-01-15T00:45:12;3.10;89.00
56478;DHT22;42382;53.210;5.772;2024-01-15T00:47:38;2.90;89.30
56478;DHT22;42382;53.210;5.772;2024-01-15T00:50:04;2.70;89.80
56478;DHT22;42382;53.210;5.772;2024-01-15T00:52:30;2.50;90.00
56478;DHT22;42382;53.210;5.772;2024-01-15T00:54:56;2.40;90.30
56478;DHT22;42382;53.210;5.772;2024-01-15T00:57:21;2.40;90.60
56478;DHT22;42382;53.210;5.772;2024-01-15T00:59:47;2.40;90.80
56478;DHT22;42382;53.210;5.772;2024-01-15T01:02:13;2.30;91.10
56478;DHT22;42382;53.210;5.772;2024-01-15T01:04:40;2.30;91.30
56478;DHT22;42382;53.210;5.772;2024-01-15T01:07:05;2.40;91.30
56478;DHT22;42382;53.210;5.772;2024-01-15T01:09:31;2.40;91.50
56478;DHT22;42382;53.210;5.772;2024-01-15T01:11:57;2.40;91.50
56478;DHT22;42382;53.210;5.772;2024-01-15T01:14:22;2.40;91.60
56478;DHT22;42382;53.210;5.772;2024-01-15T01:16:48;2.40;91.80
56478;DHT22;42382;53.210;5.772;2024-01-15T01:19:14;2.40;91.60
56478;DHT22;42382;53.210;5.772;2024-01-15T01:21:39;2.50;91.70
56478;DHT22;42382;53.210;5.772;2024-01-15T01:24:05;2.50;91.80
56478;DHT22;42382;53.210;5.772;2024-01-15T01:26:31;2.50;91.80
56478;DHT22;42382;53.210;5.772;2024-01-15T01:28:56;2.50;91.80
56478;DHT22;42382;53.210;5.772;2024-01-15T01:31:23;2.50;91.80
56478;DHT22;42382;53.210;5.772;2024-01-15T01:33:49;2.50;91.70
56478;DHT22;42382;53.210;5.772;2024-01-15T01:36:14;2.50;91.80
56478;DHT22;42382;53.210;5.772;2024-01-15T01:38:40;2.60;91.80
56478;DHT22;42382;53.210;5.772;2024-01-15T01:41:06;2.70;91.80
56478;DHT22;42382;53.210;5.772;2024-01-15T01:43:32;2.70;91.80
56478;DHT22;42382;53.210;5.772;2024-01-15T01:45:58;2.70;91.70
56478;DHT22;42382;53.210;5.772;2024-01-15T01:48:25;2.80;91.60
56478;DHT22;42382;53.210;5.772;2024-01-15T01:50:53;2.80;91.50
56478;DHT22;42382;53.210;5.772;2024-01-15T01:53:20;2.90;91.50
56478;DHT22;42382;53.210;5.772;2024-01-15T01:55:46;2.80;91.40
56478;DHT22;42382;53.210;5.772;2024-01-15T01:58:13;2.80;91.30
56478;DHT22;42382;53.210;5.772;2024-01-15T02:00:39;2.80;91.30
56478;DHT22;42382;53.210;5.772;2024-01-15T02:03:09;2.80;91.50
56478;DHT22;42382;53.210;5.772;2024-01-15T02:05:35;2.80;91.50
56478;DHT22;42382;53.210;5.772;2024-01-15T02:08:04;2.80;91.60
56478;DHT22;42382;53.210;5.772;2024-01-15T02:10:30;2.80;91.70
56478;DHT22;42382;53.210;5.772;2024-01-15T02:12:55;2.90;91.70
56478;DHT22;42382;53.210;5.772;2024-01-15T02:15:21;2.90;91.70
56478;DHT22;42382;53.210;5.772;2024-01-15T02:18:06;2.80;91.70
56478;DHT22;42382;53.210;5.772;2024-01-15T02:20:35;2.80;91.70
56478;DHT22;42382;53.210;5.772;2024-01-15T02:25:38;2.80;91.60
56478;DHT22;42382;53.210;5.772;2024-01-15T02:28:05;2.80;91.60
56478;DHT22;42382;53.210;5.772;2024-01-15T02:30:32;2.70;91.50
56478;DHT22;42382;53.210;5.772;2024-01-15T02:32:59;2.70;91.50
56478;DHT22;42382;53.210;5.772;2024-01-15T02:35:25;2.70;91.50
56478;DHT22;42382;53.210;5.772;2024-01-15T02:37:51;2.60;91.50
56478;DHT22;42382;53.210;5.772;2024-01-15T02:40:16;2.60;91.60
56478;DHT22;42382;53.210;5.772;2024-01-15T02:42:42;2.70;91.60
56478;DHT22;42382;53.210;5.772;2024-01-15T02:45:07;2.60;91.40
56478;DHT22;42382;53.210;5.772;2024-01-15T02:47:33;2.60;91.30
56478;DHT22;42382;53.210;5.772;2024-01-15T02:49:59;2.60;91.00
56478;DHT22;42382;53.210;5.772;2024-01-15T02:52:24;2.60;90.90
56478;DHT22;42382;53.210;5.772;2024-01-15T02:54:50;2.60;90.90
56478;DHT22;42382;53.210;5.772;2024-01-15T02:57:15;2.60;91.00
56478;DHT22;42382;53.210;5.772;2024-01-15T02:59:41;2.60;91.10
56478;DHT22;42382;53.210;5.772;2024-01-15T03:02:07;2.60;91.10
56478;DHT22;42382;53.210;5.772;2024-01-15T03:04:32;2.60;91.10
56478;DHT22;42382;53.210;5.772;2024-01-15T03:06:58;2.60;91.10
56478;DHT22;42382;53.210;5.772;2024-01-15T03:09:26;2.60;91.10
56478;DHT22;42382;53.210;5.772;2024-01-15T03:11:51;2.60;91.20
56478;DHT22;42382;53.210;5.772;2024-01-15T03:14:17;2.60;91.20
56478;DHT22;42382;53.210;5.772;2024-01-15T03:16:43;2.60;91.20
56478;DHT22;42382;53.210;5.772;2024-01-15T03:19:08;2.60;91.30
56478;DHT22;42382;53.210;5.772;2024-01-15T03:21:34;2.60;91.00
56478;DHT22;42382;53.210;5.772;2024-01-15T03:23:59;2.60;90.80
56478;DHT22;42382;53.210;5.772;2024-01-15T03:26:25;2.60;90.60
56478;DHT22;42382;53.210;5.772;2024-01-15T03:28:51;2.60;90.60
56478;DHT22;42382;53.210;5.772;2024-01-15T03:31:17;2.60;90.60
56478;DHT22;42382;53.210;5.772;2024-01-15T03:33:42;2.60;90.50
56478;DHT22;42382;53.210;5.772;2024-01-15T03:36:08;2.60;90.30
56478;DHT22;42382;53.210;5.772;2024-01-15T03:38:34;2.60;90.40
56478;DHT22;42382;53.210;5.772;2024-01-15T03:40:59;2.60;90.30
56478;DHT22;42382;53.210;5.772;2024-01-15T03:43:26;2.60;90.40
56478;DHT22;42382;53.210;5.772;2024-01-15T03:45:52;2.50;90.40
56478;DHT22;42382;53.210;5.772;2024-01-15T03:48:17;2.50;90.70
56478;DHT22;42382;53.210;5.772;2024-01-15T03:50:43;2.50;90.50
56478;DHT22;42382;53.210;5.772;2024-01-15T03:53:09;2.50;90.40
56478;DHT22;42382;53.210;5.772;2024-01-15T03:55:34;2.40;90.20
56478;DHT22;42382;53.210;5.772;2024-01-15T03:58:00;2.40;90.20
56478;DHT22;42382;53.210;5.772;2024-01-15T04:00:25;2.40;90.10
56478;DHT22;42382;53.210;5.772;2024-01-15T04:02:51;2.30;89.90
56478;DHT22;42382;53.210;5.772;2024-01-15T04:05:17;2.30;90.00
56478;DHT22;42382;53.210;5.772;2024-01-15T04:07:43;2.30;90.10
56478;DHT22;42382;53.210;5.772;2024-01-15T04:10:08;2.20;90.10
56478;DHT22;42382;53.210;5.772;2024-01-15T04:12:34;2.20;90.20
56478;DHT22;42382;53.210;5.772;2024-01-15T04:15:00;2.20;90.40
56478;DHT22;42382;53.210;5.772;2024-01-15T04:17:27;2.10;90.50
56478;DHT22;42382;53.210;5.772;2024-01-15T04:19:52;2.10;90.60
56478;DHT22;42382;53.210;5.772;2024-01-15T04:22:18;2.10;90.60
56478;DHT22;42382;53.210;5.772;2024-01-15T04:24:43;2.00;90.60
56478;DHT22;42382;53.210;5.772;2024-01-15T04:27:09;2.00;90.70
56478;DHT22;42382;53.210;5.772;2024-01-15T04:29:37;2.00;90.80
56478;DHT22;42382;53.210;5.772;2024-01-15T04:32:04;2.00;90.80
56478;DHT22;42382;53.210;5.772;2024-01-15T04:34:30;2.00;90.90
56478;DHT22;42382;53.210;5.772;2024-01-15T04:36:55;2.00;91.00
56478;DHT22;42382;53.210;5.772;2024-01-15T04:39:21;2.00;91.00
56478;DHT22;42382;53.210;5.772;2024-01-15T04:41:47;2.10;91.10
56478;DHT22;42382;53.210;5.772;2024-01-15T04:44:13;2.10;91.20
56478;DHT22;42382;53.210;5.772;2024-01-15T04:46:39;2.10;91.20
56478;DHT22;42382;53.210;5.772;2024-01-15T04:49:04;2.10;91.30
56478;DHT22;42382;53.210;5.772;2024-01-15T04:51:30;2.10;91.30
56478;DHT22;42382;53.210;5.772;2024-01-15T04:53:56;2.10;91.30
56478;DHT22;42382;53.210;5.772;2024-01-15T04:56:21;2.10;91.40
56478;DHT22;42382;53.210;5.772;2024-01-15T04:58:47;2.10;91.30
56478;DHT22;42382;53.210;5.772;2024-01-15T05:01:12;2.00;91.30
56478;DHT22;42382;53.210;5.772;2024-01-15T05:03:38;1.90;91.30
56478;DHT22;42382;53.210;5.772;2024-01-15T05:06:04;1.90;91.20
56478;DHT22;42382;53.210;5.772;2024-01-15T05:08:30;1.90;91.30
56478;DHT22;42382;53.210;5.772;2024-01-15T05:10:55;1.90;91.30
56478;DHT22;42382;53.210;5.772;2024-01-15T05:13:21;1.80;91.40
56478;DHT22;42382;53.210;5.772;2024-01-15T05:15:47;1.80;91.40
56478;DHT22;42382;53.210;5.772;2024-01-15T05:18:13;1.80;91.60
56478;DHT22;42382;53.210;5.772;2024-01-15T05:20:38;1.90;91.60
56478;DHT22;42382;53.210;5.772;2024-01-15T05:23:04;1.90;91.60
56478;DHT22;42382;53.210;5.772;2024-01-15T05:25:29;1.90;91.60
56478;DHT22;42382;53.210;5.772;2024-01-15T05:27:55;1.90;91.60
56478;DHT22;42382;53.210;5.772;2024-01-15T05:30:21;2.00;91.50
56478;DHT22;42382;53.210;5.772;2024-01-15T05:32:46;2.10;91.40
56478;DHT22;42382;53.210;5.772;2024-01-15T05:35:12;2.10;91.30
56478;DHT22;42382;53.210;5.772;2024-01-15T05:37:39;2.10;91.00
56478;DHT22;42382;53.210;5.772;2024-01-15T05:40:05;2.10;90.90
56478;DHT22;42382;53.210;5.772;2024-01-15T05:42:31;2.20;90.80
56478;DHT22;42382;53.210;5.772;2024-01-15T05:44:57;2.20;90.50
56478;DHT22;42382;53.210;5.772;2024-01-15T05:47:24;2.30;90.10
56478;DHT22;42382;53.210;5.772;2024-01-15T05:49:50;2.30;89.90
56478;DHT22;42382;53.210;5.772;2024-01-15T05:52:16;2.30;89.80
56478;DHT22;42382;53.210;5.772;2024-01-15T05:54:42;2.30;89.80
56478;DHT22;42382;53.210;5.772;2024-01-15T05:57:07;2.30;89.80
56478;DHT22;42382;53.210;5.772;2024-01-15T05:59:33;2.40;89.80
56478;DHT22;42382;53.210;5.772;2024-01-15T06:02:01;2.40;89.90
56478;DHT22;42382;53.210;5.772;2024-01-15T06:04:27;2.30;89.90
56478;DHT22;42382;53.210;5.772;2024-01-15T06:06:52;2.30;89.90
56478;DHT22;42382;53.210;5.772;2024-01-15T06:09:18;2.20;90.00
56478;DHT22;42382;53.210;5.772;2024-01-15T06:11:43;2.20;90.10
56478;DHT22;42382;53.210;5.772;2024-01-15T06:14:09;2.20;90.00
56478;DHT22;42382;53.210;5.772;2024-01-15T06:16:34;2.10;89.90
56478;DHT22;42382;53.210;5.772;2024-01-15T06:19:00;2.10;89.80
56478;DHT22;42382;53.210;5.772;2024-01-15T06:21:26;2.00;89.90
56478;DHT22;42382;53.210;5.772;2024-01-15T06:23:51;1.90;89.80
56478;DHT22;42382;53.210;5.772;2024-01-15T06:26:17;1.90;89.70
56478;DHT22;42382;53.210;5.772;2024-01-15T06:28:42;1.80;89.70
56478;DHT22;42382;53.210;5.772;2024-01-15T06:31:08;1.80;89.80
56478;DHT22;42382;53.210;5.772;2024-01-15T06:33:34;1.70;89.80
56478;DHT22;42382;53.210;5.772;2024-01-15T06:35:59;1.70;89.90
56478;DHT22;42382;53.210;5.772;2024-01-15T06:38:25;1.60;89.90
56478;DHT22;42382;53.210;5.772;2024-01-15T06:40:51;1.60;89.90
56478;DHT22;42382;53.210;5.772;2024-01-15T06:43:17;1.60;90.00
56478;DHT22;42382;53.210;5.772;2024-01-15T06:45:43;1.50;90.00
56478;DHT22;42382;53.210;5.772;2024-01-15T06:48:09;1.50;90.10
56478;DHT22;42382;53.210;5.772;2024-01-15T06:50:35;1.50;90.30
56478;DHT22;42382;53.210;5.772;2024-01-15T06:53:01;1.50;90.30
56478;DHT22;42382;53.210;5.772;2024-01-15T06:55:26;1.50;90.50
56478;DHT22;42382;53.210;5.772;2024-01-15T06:57:53;1.50;90.50
56478;DHT22;42382;53.210;5.772;2024-01-15T07:00:18;1.50;90.60
56478;DHT22;42382;53.210;5.772;2024-01-15T07:02:47;1.60;90.70
56478;DHT22;42382;53.210;5.772;2024-01-15T07:05:13;1.60;90.70
56478;DHT22;42382;53.210;5.772;2024-01-15T07:07:38;1.60;90.70
56478;DHT22;42382;53.210;5.772;2024-01-15T07:10:05;1.70;90.70
56478;DHT22;42382;53.210;5.772;2024-01-15T07:12:31;1.80;90.60
56478;DHT22;42382;53.210;5.772;2024-01-15T07:14:57;1.90;90.40
56478;DHT22;42382;53.210;5.772;2024-01-15T07:17:22;1.90;90.20
56478;DHT22;42382;53.210;5.772;2024-01-15T07:19:48;1.90;90.10
56478;DHT22;42382;53.210;5.772;2024-01-15T07:22:14;2.00;89.90
56478;DHT22;42382;53.210;5.772;2024-01-15T07:24:40;2.10;89.80
56478;DHT22;42382;53.210;5.772;2024-01-15T07:27:06;2.10;89.80
56478;DHT22;42382;53.210;5.772;2024-01-15T07:29:32;2.10;89.80
56478;DHT22;42382;53.210;5.772;2024-01-15T07:31:58;2.00;89.90
56478;DHT22;42382;53.210;5.772;2024-01-15T07:34:24;2.00;90.00
56478;DHT22;42382;53.210;5.772;2024-01-15T07:36:49;2.00;90.00
56478;DHT22;42382;53.210;5.772;2024-01-15T07:39:15;1.90;89.90
56478;DHT22;42382;53.210;5.772;2024-01-15T07:41:41;1.90;89.70
56478;DHT22;42382;53.210;5.772;2024-01-15T07:44:06;1.80;89.70
56478;DHT22;42382;53.210;5.772;2024-01-15T07:46:32;1.70;89.80
56478;DHT22;42382;53.210;5.772;2024-01-15T07:48:57;1.60;89.80
56478;DHT22;42382;53.210;5.772;2024-01-15T07:51:24;1.60;89.90
56478;DHT22;42382;53.210;5.772;2024-01-15T07:53:50;1.50;89.80
56478;DHT22;42382;53.210;5.772;2024-01-15T07:56:16;1.50;89.90
56478;DHT22;42382;53.210;5.772;2024-01-15T07:58:42;1.40;89.80
56478;DHT22;42382;53.210;5.772;2024-01-15T08:01:08;1.40;89.80
56478;DHT22;42382;53.210;5.772;2024-01-15T08:03:33;1.40;89.90
56478;DHT22;42382;53.210;5.772;2024-01-15T08:05:59;1.40;90.00
56478;DHT22;42382;53.210;5.772;2024-01-15T08:08:25;1.40;90.10
56478;DHT22;42382;53.210;5.772;2024-01-15T08:10:54;1.40;90.20
56478;DHT22;42382;53.210;5.772;2024-01-15T08:13:19;1.40;90.30
56478;DHT22;42382;53.210;5.772;2024-01-15T08:15:46;1.50;90.50
56478;DHT22;42382;53.210;5.772;2024-01-15T08:18:12;1.50;90.60
56478;DHT22;42382;53.210;5.772;2024-01-15T08:20:38;1.60;90.70
56478;DHT22;42382;53.210;5.772;2024-01-15T08:23:04;1.60;90.80
56478;DHT22;42382;53.210;5.772;2024-01-15T08:25:29;1.70;90.90
56478;DHT22;42382;53.210;5.772;2024-01-15T08:27:56;1.70;91.10
56478;DHT22;42382;53.210;5.772;2024-01-15T08:30:23;1.80;91.10
56478;DHT22;42382;53.210;5.772;2024-01-15T08:32:56;1.80;91.10
56478;DHT22;42382;53.210;5.772;2024-01-15T08:35:21;1.90;91.10
56478;DHT22;42382;53.210;5.772;2024-01-15T08:37:52;1.90;90.90
56478;DHT22;42382;53.210;5.772;2024-01-15T08:40:18;2.00;90.80
56478;DHT22;42382;53.210;5.772;2024-01-15T08:42:44;2.10;90.70
56478;DHT22;42382;53.210;5.772;2024-01-15T08:45:13;2.10;90.50
56478;DHT22;42382;53.210;5.772;2024-01-15T08:47:39;2.20;90.40
56478;DHT22;42382;53.210;5.772;2024-01-15T08:50:05;2.20;90.40
56478;DHT22;42382;53.210;5.772;2024-01-15T08:52:30;2.30;90.30
56478;DHT22;42382;53.210;5.772;2024-01-15T08:54:56;2.40;90.10
56478;DHT22;42382;53.210;5.772;2024-01-15T08:57:22;2.40;89.90
56478;DHT22;42382;53.210;5.772;2024-01-15T08:59:48;2.60;90.00
56478;DHT22;42382;53.210;5.772;2024-01-15T09:02:14;2.60;89.80
56478;DHT22;42382;53.210;5.772;2024-01-15T09:04:40;2.60;89.80
56478;DHT22;42382;53.210;5.772;2024-01-15T09:07:10;2.60;89.70
56478;DHT22;42382;53.210;5.772;2024-01-15T09:09:35;2.60;89.90
56478;DHT22;42382;53.210;5.772;2024-01-15T09:12:02;2.60;89.70
56478;DHT22;42382;53.210;5.772;2024-01-15T09:14:27;2.50;89.40
56478;DHT22;42382;53.210;5.772;2024-01-15T09:16:54;2.50;89.40
56478;DHT22;42382;53.210;5.772;2024-01-15T09:19:20;2.50;89.20
56478;DHT22;42382;53.210;5.772;2024-01-15T09:21:45;2.50;89.30
56478;DHT22;42382;53.210;5.772;2024-01-15T09:24:11;2.60;89.20
56478;DHT22;42382;53.210;5.772;2024-01-15T09:26:36;2.60;89.40
56478;DHT22;42382;53.210;5.772;2024-01-15T09:29:05;2.70;89.10
56478;DHT22;42382;53.210;5.772;2024-01-15T09:31:31;2.70;89.20
56478;DHT22;42382;53.210;5.772;2024-01-15T09:33:56;2.70;89.20
56478;DHT22;42382;53.210;5.772;2024-01-15T09:36:23;2.70;89.10
56478;DHT22;42382;53.210;5.772;2024-01-15T09:38:49;2.60;89.10
56478;DHT22;42382;53.210;5.772;2024-01-15T09:41:15;2.70;89.20
56478;DHT22;42382;53.210;5.772;2024-01-15T09:43:41;2.70;89.40
56478;DHT22;42382;53.210;5.772;2024-01-15T09:46:07;2.70;89.60
56478;DHT22;42382;53.210;5.772;2024-01-15T09:48:34;2.60;89.60
56478;DHT22;42382;53.210;5.772;2024-01-15T09:51:01;2.60;89.80
56478;DHT22;42382;53.210;5.772;2024-01-15T09:53:27;2.60;90.10
56478;DHT22;42382;53.210;5.772;2024-01-15T09:55:53;2.60;90.30
56478;DHT22;42382;53.210;5.772;2024-01-15T09:58:19;2.70;90.70
56478;DHT22;42382;53.210;5.772;2024-01-15T10:00:47;2.80;90.90
56478;DHT22;42382;53.210;5.772;2024-01-15T10:03:15;2.80;90.90
56478;DHT22;42382;53.210;5.772;2024-01-15T10:05:41;2.90;90.70
56478;DHT22;42382;53.210;5.772;2024-01-15T10:08:07;2.90;90.40
56478;DHT22;42382;53.210;5.772;2024-01-15T10:10:33;2.90;89.90
56478;DHT22;42382;53.210;5.772;2024-01-15T10:13:01;2.80;90.00
56478;DHT22;42382;53.210;5.772;2024-01-15T10:15:27;2.60;89.70
56478;DHT22;42382;53.210;5.772;2024-01-15T10:17:52;2.40;89.70
56478;DHT22;42382;53.210;5.772;2024-01-15T10:20:18;2.30;89.80
56478;DHT22;42382;53.210;5.772;2024-01-15T10:22:45;2.30;90.10
56478;DHT22;42382;53.210;5.772;2024-01-15T10:25:15;2.20;90.30
56478;DHT22;42382;53.210;5.772;2024-01-15T10:27:41;2.30;90.60
56478;DHT22;42382;53.210;5.772;2024-01-15T10:30:10;2.30;90.40
56478;DHT22;42382;53.210;5.772;2024-01-15T10:32:36;2.30;90.60
56478;DHT22;42382;53.210;5.772;2024-01-15T10:35:02;2.40;90.60
56478;DHT22;42382;53.210;5.772;2024-01-15T10:37:33;2.40;90.70
56478;DHT22;42382;53.210;5.772;2024-01-15T10:40:03;2.50;90.70
56478;DHT22;42382;53.210;5.772;2024-01-15T10:42:30;2.60;90.80
56478;DHT22;42382;53.210;5.772;2024-01-15T10:44:56;2.60;90.70
56478;DHT22;42382;53.210;5.772;2024-01-15T10:47:22;2.70;90.50
56478;DHT22;42382;53.210;5.772;2024-01-15T10:49:48;2.70;90.30
56478;DHT22;42382;53.210;5.772;2024-01-15T10:52:15;2.80;89.90
56478;DHT22;42382;53.210;5.772;2024-01-15T10:54:41;2.80;89.40
56478;DHT22;42382;53.210;5.772;2024-01-15T10:57:08;2.90;89.10
56478;DHT22;42382;53.210;5.772;2024-01-15T10:59:34;2.90;89.20
56478;DHT22;42382;53.210;5.772;2024-01-15T11:02:01;2.90;89.10
56478;DHT22;42382;53.210;5.772;2024-01-15T11:04:27;2.90;89.00
56478;DHT22;42382;53.210;5.772;2024-01-15T11:06:54;3.00;88.70
56478;DHT22;42382;53.210;5.772;2024-01-15T11:09:21;3.10;88.70
56478;DHT22;42382;53.210;5.772;2024-01-15T11:11:47;3.10;88.40
56478;DHT22;42382;53.210;5.772;2024-01-15T11:14:40;3.10;88.30
56478;DHT22;42382;53.210;5.772;2024-01-15T11:17:09;3.20;88.60
56478;DHT22;42382;53.210;5.772;2024-01-15T11:19:45;3.10;88.50
56478;DHT22;42382;53.210;5.772;2024-01-15T11:25:13;2.60;88.40
56478;DHT22;42382;53.210;5.772;2024-01-15T11:27:41;2.40;88.90
56478;DHT22;42382;53.210;5.772;2024-01-15T11:30:11;2.10;89.40
56478;DHT22;42382;53.210;5.772;2024-01-15T11:32:38;2.10;89.90
56478;DHT22;42382;53.210;5.772;2024-01-15T11:35:07;1.90;90.00
56478;DHT22;42382;53.210;5.772;2024-01-15T11:40:37;1.80;90.60
56478;DHT22;42382;53.210;5.772;2024-01-15T11:43:04;1.90;90.80
56478;DHT22;42382;53.210;5.772;2024-01-15T11:45:30;1.90;90.80
56478;DHT22;42382;53.210;5.772;2024-01-15T11:48:15;1.90;90.90
56478;DHT22;42382;53.210;5.772;2024-01-15T11:50:49;2.00;91.00
56478;DHT22;42382;53.210;5.772;2024-01-15T11:55:51;2.10;91.20
56478;DHT22;42382;53.210;5.772;2024-01-15T11:58:18;2.10;91.10
56478;DHT22;42382;53.210;5.772;2024-01-15T12:00:45;2.20;91.20
56478;DHT22;42382;53.210;5.772;2024-01-15T12:03:12;2.30;91.50
56478;DHT22;42382;53.210;5.772;2024-01-15T12:05:38;2.40;91.40
56478;DHT22;42382;53.210;5.772;2024-01-15T12:08:04;2.60;91.50
56478;DHT22;42382;53.210;5.772;2024-01-15T12:10:40;2.70;91.30
56478;DHT22;42382;53.210;5.772;2024-01-15T12:13:13;2.80;91.10
56478;DHT22;42382;53.210;5.772;2024-01-15T12:15:40;2.80;90.60
56478;DHT22;42382;53.210;5.772;2024-01-15T12:18:07;2.70;90.50
56478;DHT22;42382;53.210;5.772;2024-01-15T12:20:33;2.80;90.40
56478;DHT22;42382;53.210;5.772;2024-01-15T12:23:00;2.80;90.50
56478;DHT22;42382;53.210;5.772;2024-01-15T12:25:26;2.80;90.50
56478;DHT22;42382;53.210;5.772;2024-01-15T12:27:55;2.80;90.40
56478;DHT22;42382;53.210;5.772;2024-01-15T12:30:20;2.90;90.30
56478;DHT22;42382;53.210;5.772;2024-01-15T12:32:46;3.00;90.40
56478;DHT22;42382;53.210;5.772;2024-01-15T12:35:13;3.20;90.50
56478;DHT22;42382;53.210;5.772;2024-01-15T12:37:41;3.30;90.60
56478;DHT22;42382;53.210;5.772;2024-01-15T12:40:08;3.20;90.40
56478;DHT22;42382;53.210;5.772;2024-01-15T12:42:36;3.30;90.40
56478;DHT22;42382;53.210;5.772;2024-01-15T12:45:02;3.20;90.30
56478;DHT22;42382;53.210;5.772;2024-01-15T12:47:30;3.20;89.50
56478;DHT22;42382;53.210;5.772;2024-01-15T12:49:57;3.10;88.60
56478;DHT22;42382;53.210;5.772;2024-01-15T12:52:23;3.10;87.90
56478;DHT22;42382;53.210;5.772;2024-01-15T12:54:49;3.10;87.70
56478;DHT22;42382;53.210;5.772;2024-01-15T12:57:16;3.00;86.90
56478;DHT22;42382;53.210;5.772;2024-01-15T12:59:42;3.00;86.30
56478;DHT22;42382;53.210;5.772;2024-01-15T13:02:08;3.10;86.10
56478;DHT22;42382;53.210;5.772;2024-01-15T13:04:33;3.10;85.90
56478;DHT22;42382;53.210;5.772;2024-01-15T13:06:59;3.30;85.40
56478;DHT22;42382;53.210;5.772;2024-01-15T13:09:24;3.40;85.00
56478;DHT22;42382;53.210;5.772;2024-01-15T13:11:50;3.40;85.20
56478;DHT22;42382;53.210;5.772;2024-01-15T13:14:17;3.40;85.20
56478;DHT22;42382;53.210;5.772;2024-01-15T13:16:43;3.40;85.30
56478;DHT22;42382;53.210;5.772;2024-01-15T13:19:09;3.40;85.30
56478;DHT22;42382;53.210;5.772;2024-01-15T13:21:42;3.40;85.60
56478;DHT22;42382;53.210;5.772;2024-01-15T13:24:08;3.30;85.70
56478;DHT22;42382;53.210;5.772;2024-01-15T13:26:34;3.30;85.80
56478;DHT22;42382;53.210;5.772;2024-01-15T13:29:02;3.30;85.70
56478;DHT22;42382;53.210;5.772;2024-01-15T13:31:32;3.30;84.90
56478;DHT22;42382;53.210;5.772;2024-01-15T13:33:58;3.40;83.10
56478;DHT22;42382;53.210;5.772;2024-01-15T13:36:24;3.40;81.70
56478;DHT22;42382;53.210;5.772;2024-01-15T13:38:51;3.30;76.30
56478;DHT22;42382;53.210;5.772;2024-01-15T13:41:17;3.30;78.00
56478;DHT22;42382;53.210;5.772;2024-01-15T13:43:55;3.30;78.30
56478;DHT22;42382;53.210;5.772;2024-01-15T13:46:24;3.20;78.90
56478;DHT22;42382;53.210;5.772;2024-01-15T13:48:53;3.10;79.70
56478;DHT22;42382;53.210;5.772;2024-01-15T13:51:21;3.00;80.70
56478;DHT22;42382;53.210;5.772;2024-01-15T13:53:47;3.00;81.50
56478;DHT22;42382;53.210;5.772;2024-01-15T13:56:13;3.00;82.60
56478;DHT22;42382;53.210;5.772;2024-01-15T13:58:38;3.00;83.80
56478;DHT22;42382;53.210;5.772;2024-01-15T14:01:04;3.00;84.80
56478;DHT22;42382;53.210;5.772;2024-01-15T14:03:31;3.10;85.40
56478;DHT22;42382;53.210;5.772;2024-01-15T14:05:57;3.10;85.60
56478;DHT22;42382;53.210;5.772;2024-01-15T14:08:23;3.10;85.80
56478;DHT22;42382;53.210;5.772;2024-01-15T14:10:48;3.10;86.10
56478;DHT22;42382;53.210;5.772;2024-01-15T14:13:14;3.10;86.30
56478;DHT22;42382;53.210;5.772;2024-01-15T14:15:39;3.10;86.40
56478;DHT22;42382;53.210;5.772;2024-01-15T14:18:05;3.10;86.30
56478;DHT22;42382;53.210;5.772;2024-01-15T14:20:31;3.10;86.30
56478;DHT22;42382;53.210;5.772;2024-01-15T14:22:56;3.00;86.60
56478;DHT22;42382;53.210;5.772;2024-01-15T14:25:22;2.90;87.10
56478;DHT22;42382;53.210;5.772;2024-01-15T14:27:49;2.70;87.30
56478;DHT22;42382;53.210;5.772;2024-01-15T14:30:15;2.50;87.60
56478;DHT22;42382;53.210;5.772;2024-01-15T14:32:42;2.40;87.90
56478;DHT22;42382;53.210;5.772;2024-01-15T14:35:10;2.30;88.10
56478;DHT22;42382;53.210;5.772;2024-01-15T14:37:39;2.10;88.50
56478;DHT22;42382;53.210;5.772;2024-01-15T14:40:08;2.00;88.80
56478;DHT22;42382;53.210;5.772;2024-01-15T14:42:35;1.90;89.00
56478;DHT22;42382;53.210;5.772;2024-01-15T14:45:02;1.80;89.40
56478;DHT22;42382;53.210;5.772;2024-01-15T14:47:28;1.80;89.70
56478;DHT22;42382;53.210;5.772;2024-01-15T14:49:54;1.80;89.80
56478;DHT22;42382;53.210;5.772;2024-01-15T14:52:22;1.80;90.10
56478;DHT22;42382;53.210;5.772;2024-01-15T14:54:47;1.90;90.60
56478;DHT22;42382;53.210;5.772;2024-01-15T14:57:13;1.90;90.90
56478;DHT22;42382;53.210;5.772;2024-01-15T14:59:39;1.90;91.00
56478;DHT22;42382;53.210;5.772;2024-01-15T15:02:04;1.90;91.00
56478;DHT22;42382;53.210;5.772;2024-01-15T15:04:30;1.90;91.10
56478;DHT22;42382;53.210;5.772;2024-01-15T15:06:56;2.00;91.20
56478;DHT22;42382;53.210;5.772;2024-01-15T15:09:22;2.00;91.30
56478;DHT22;42382;53.210;5.772;2024-01-15T15:11:48;2.00;91.40
56478;DHT22;42382;53.210;5.772;2024-01-15T15:14:13;2.00;91.50
56478;DHT22;42382;53.210;5.772;2024-01-15T15:16:39;2.10;91.60
56478;DHT22;42382;53.210;5.772;2024-01-15T15:19:04;2.10;91.60
56478;DHT22;42382;53.210;5.772;2024-01-15T15:21:30;2.10;91.60
56478;DHT22;42382;53.210;5.772;2024-01-15T15:23:55;2.10;91.30
56478;DHT22;42382;53.210;5.772;2024-01-15T15:26:24;2.10;91.30
56478;DHT22;42382;53.210;5.772;2024-01-15T15:28:49;2.10;91.30
56478;DHT22;42382;53.210;5.772;2024-01-15T15:31:15;2.10;91.40
56478;DHT22;42382;53.210;5.772;2024-01-15T15:33:43;2.10;91.30
56478;DHT22;42382;53.210;5.772;2024-01-15T15:36:09;2.10;91.30
56478;DHT22;42382;53.210;5.772;2024-01-15T15:38:35;2.00;91.30
56478;DHT22;42382;53.210;5.772;2024-01-15T15:41:01;1.90;91.40
56478;DHT22;42382;53.210;5.772;2024-01-15T15:43:27;1.90;91.30
56478;DHT22;42382;53.210;5.772;2024-01-15T15:45:53;1.80;91.20
56478;DHT22;42382;53.210;5.772;2024-01-15T15:48:18;1.80;91.20
56478;DHT22;42382;53.210;5.772;2024-01-15T15:50:44;1.70;91.10